createdAt,value
2019-06-10T00:01:44.669Z,101291.00
2019-06-10T00:04:15.059Z,101287.00
2019-06-10T00:06:45.415Z,101293.00
2019-06-10T00:09:15.815Z,101287.00
2019-06-10T00:11:46.184Z,101292.00
2019-06-10T00:14:16.569Z,101306.00
2019-06-10T00:16:46.957Z,101303.00
2019-06-10T00:19:17.331Z,101307.00
2019-06-10T00:21:47.721Z,101308.00
2019-06-10T00:24:21.022Z,101313.00
2019-06-10T00:26:51.508Z,101306.00
2019-06-10T00:29:22.426Z,101301.00
2019-06-10T00:31:54.020Z,101304.00
2019-06-10T00:34:27.933Z,101301.00
2019-06-10T00:36:59.637Z,101298.00
2019-06-10T00:39:31.282Z,101299.00
2019-06-10T00:42:03.166Z,101294.00
2019-06-10T00:44:33.818Z,101285.00
2019-06-10T00:47:06.635Z,101285.00
2019-06-10T00:49:36.283Z,101280.00
2019-06-10T00:52:07.438Z,101273.00
2019-06-10T00:54:37.990Z,101271.00
2019-06-10T00:57:09.892Z,101256.00
2019-06-10T00:59:41.393Z,101256.00
2019-06-10T01:02:14.220Z,101254.00
2019-06-10T01:04:44.516Z,101255.00
2019-06-10T01:07:15.101Z,101255.00
2019-06-10T01:09:46.397Z,101251.00
2019-06-10T01:12:16.782Z,101242.00
2019-06-10T01:14:47.148Z,101234.00
2019-06-10T01:17:17.531Z,101239.00
2019-06-10T01:19:47.892Z,101231.00
2019-06-10T01:22:18.286Z,101227.00
2019-06-10T01:24:50.919Z,101230.00
2019-06-10T01:27:21.209Z,101230.00
2019-06-10T01:29:51.784Z,101229.00
2019-06-10T01:32:22.182Z,101228.00
2019-06-10T01:34:52.543Z,101223.00
2019-06-10T01:37:22.948Z,101216.00
2019-06-10T01:39:53.319Z,101202.00
2019-06-10T01:42:23.705Z,101200.00
2019-06-10T01:44:54.071Z,101209.00
2019-06-10T01:47:24.446Z,101211.00
2019-06-10T01:49:54.815Z,101209.00
2019-06-10T01:52:25.205Z,101219.00
2019-06-10T01:54:55.566Z,101203.00
2019-06-10T01:57:25.946Z,101203.00
2019-06-10T01:59:56.308Z,101191.00
2019-06-10T02:02:26.867Z,101188.00
2019-06-10T02:04:57.231Z,101181.00
2019-06-10T02:07:27.624Z,101163.00
2019-06-10T02:09:57.992Z,101142.00
2019-06-10T02:12:31.321Z,101133.00
2019-06-10T02:15:01.309Z,101121.00
2019-06-10T02:17:31.984Z,101109.00
2019-06-10T02:20:02.417Z,101103.00
2019-06-10T02:22:32.868Z,101116.00
2019-06-10T02:25:03.403Z,101128.00
2019-06-10T02:27:33.797Z,101118.00
2019-06-10T02:30:14.837Z,101105.00
2019-06-10T02:32:38.385Z,101106.00
2019-06-10T02:35:15.485Z,101108.00
2019-06-10T02:37:44.405Z,101096.00
2019-06-10T02:40:18.460Z,101080.00
2019-06-10T02:42:50.226Z,101074.00
2019-06-10T02:45:30.754Z,101071.00
2019-06-10T02:47:53.529Z,101058.00
2019-06-10T02:50:53.861Z,101050.00
2019-06-10T02:53:30.266Z,101047.00
2019-06-10T02:55:55.998Z,101032.00
2019-06-10T02:58:33.304Z,101040.00
2019-06-10T03:00:58.440Z,101035.00
2019-06-10T03:03:39.286Z,101041.00
2019-06-10T03:06:05.755Z,101038.00
2019-06-10T03:08:36.170Z,101032.00
2019-06-10T03:11:05.067Z,101052.00
2019-06-10T03:13:35.462Z,101039.00
2019-06-10T03:16:20.490Z,101051.00
2019-06-10T03:18:52.513Z,101039.00
2019-06-10T03:21:24.616Z,101046.00
2019-06-10T03:23:55.099Z,101051.00
2019-06-10T03:26:25.726Z,101066.00
2019-06-10T03:29:08.153Z,101061.00
2019-06-10T03:31:43.239Z,101061.00
2019-06-10T03:34:14.358Z,101073.00
2019-06-10T03:36:43.019Z,101088.00
2019-06-10T03:39:13.542Z,101087.00
2019-06-10T03:41:43.897Z,101080.00
2019-06-10T03:44:14.281Z,101090.00
2019-06-10T03:46:44.642Z,101086.00
2019-06-10T03:49:15.049Z,101095.00
2019-06-10T03:51:45.436Z,101084.00
2019-06-10T03:54:17.095Z,101072.00
2019-06-10T03:56:47.547Z,101062.00
2019-06-10T03:59:19.166Z,101053.00
2019-06-10T04:01:49.584Z,101058.00
2019-06-10T04:04:22.414Z,101061.00
2019-06-10T04:06:53.210Z,101056.00
2019-06-10T04:09:25.456Z,101052.00
2019-06-10T04:11:55.798Z,101044.00
2019-06-10T04:14:38.386Z,101057.00
2019-06-10T04:17:08.754Z,101051.00
2019-06-10T04:19:39.155Z,101036.00
2019-06-10T04:22:09.523Z,101026.00
2019-06-10T04:24:39.928Z,101018.00
2019-06-10T04:27:12.286Z,101015.00
2019-06-10T04:29:42.395Z,101004.00
2019-06-10T04:32:13.732Z,101003.00
2019-06-10T04:34:44.119Z,101002.00
2019-06-10T04:37:14.501Z,100995.00
2019-06-10T04:39:44.887Z,100987.00
2019-06-10T04:42:15.271Z,100988.00
2019-06-10T04:44:45.662Z,100974.00
2019-06-10T04:47:16.055Z,100972.00
2019-06-10T04:49:46.424Z,100987.00
2019-06-10T04:52:16.811Z,100990.00
2019-06-10T04:54:47.200Z,100997.00
2019-06-10T04:57:18.750Z,101001.00
2019-06-10T04:59:49.125Z,101009.00
2019-06-10T05:02:22.327Z,101024.00
2019-06-10T05:04:53.243Z,101024.00
2019-06-10T05:07:25.622Z,101028.00
2019-06-10T05:09:55.843Z,101030.00
2019-06-10T05:12:26.784Z,101027.00
2019-06-10T05:14:58.278Z,101024.00
2019-06-10T05:17:29.666Z,101023.00
2019-06-10T05:20:02.510Z,101023.00
2019-06-10T05:22:33.367Z,101009.00
2019-06-10T05:25:05.132Z,100999.00
2019-06-10T05:27:35.518Z,101003.00
2019-06-10T05:30:27.700Z,101001.00
2019-06-10T05:32:58.843Z,100989.00
2019-06-10T05:35:31.580Z,100982.00
2019-06-10T05:38:02.529Z,100993.00
2019-06-10T05:40:34.279Z,100987.00
2019-06-10T05:43:05.036Z,100985.00
2019-06-10T05:45:54.733Z,100998.00
2019-06-10T05:48:25.605Z,100997.00
2019-06-10T05:51:02.815Z,101004.00
2019-06-10T05:53:29.293Z,100990.00
2019-06-10T05:56:02.190Z,100987.00
2019-06-10T05:58:34.511Z,100982.00
2019-06-10T06:01:04.583Z,100989.00
2019-06-10T06:03:36.910Z,100987.00
2019-06-10T06:06:07.055Z,100988.00
2019-06-10T06:08:37.587Z,100983.00
2019-06-10T06:11:07.885Z,100987.00
2019-06-10T06:13:38.284Z,100983.00
2019-06-10T06:16:08.648Z,100981.00
2019-06-10T06:18:39.036Z,100989.00
2019-06-10T06:21:22.711Z,100986.00
2019-06-10T06:23:43.694Z,100985.00
2019-06-10T06:26:16.459Z,100992.00
2019-06-10T06:28:46.426Z,100998.00
2019-06-10T06:31:16.788Z,100988.00
2019-06-10T06:33:47.167Z,100987.00
2019-06-10T06:36:17.550Z,100989.00
2019-06-10T06:38:48.176Z,100976.00
2019-06-10T06:41:18.541Z,100970.00
2019-06-10T06:43:48.930Z,100965.00
2019-06-10T06:46:19.287Z,100948.00
2019-06-10T06:48:49.669Z,100941.00
2019-06-10T06:51:35.495Z,100937.00
2019-06-10T06:53:56.035Z,100935.00
2019-06-10T06:56:24.212Z,100924.00
2019-06-10T06:58:54.599Z,100928.00
2019-06-10T07:01:26.014Z,100938.00
2019-06-10T07:03:56.503Z,100935.00
2019-06-10T07:06:27.410Z,100930.00
2019-06-10T07:09:04.494Z,100932.00
2019-06-10T07:11:38.720Z,100935.00
2019-06-10T07:14:10.196Z,100931.00
2019-06-10T07:16:45.834Z,100938.00
2019-06-10T07:19:13.407Z,100934.00
2019-06-10T07:22:02.309Z,100933.00
2019-06-10T07:24:15.852Z,100937.00
2019-06-10T07:26:52.134Z,100936.00
2019-06-10T07:29:18.653Z,100927.00
2019-06-10T07:31:51.052Z,100936.00
2019-06-10T07:34:27.443Z,100937.00
2019-06-10T07:36:57.845Z,100940.00
2019-06-10T07:39:28.234Z,100928.00
2019-06-10T07:41:58.600Z,100929.00
2019-06-10T07:44:28.986Z,100923.00
2019-06-10T07:46:59.347Z,100930.00
2019-06-10T07:49:32.145Z,100932.00
2019-06-10T07:52:14.980Z,100937.00
2019-06-10T07:54:34.798Z,100940.00
2019-06-10T07:57:05.951Z,100944.00
2019-06-10T07:59:37.395Z,100946.00
2019-06-10T08:02:08.143Z,100935.00
2019-06-10T08:04:39.756Z,100935.00
2019-06-10T08:07:12.515Z,100933.00
2019-06-10T08:09:44.304Z,100925.00
2019-06-10T08:12:15.188Z,100923.00
2019-06-10T08:14:45.849Z,100923.00
2019-06-10T08:17:16.285Z,100922.00
2019-06-10T08:19:50.557Z,100924.00
2019-06-10T08:22:31.127Z,100922.00
2019-06-10T08:24:52.371Z,100930.00
2019-06-10T08:27:22.944Z,100936.00
2019-06-10T08:30:13.102Z,100924.00
2019-06-10T08:32:25.527Z,100936.00
2019-06-10T08:34:55.917Z,100925.00
2019-06-10T08:37:27.282Z,100926.00
2019-06-10T08:39:57.669Z,100939.00
2019-06-10T08:42:28.043Z,100934.00
2019-06-10T08:45:00.015Z,100921.00
2019-06-10T08:47:32.625Z,100913.00
2019-06-10T08:50:02.779Z,100909.00
2019-06-10T08:52:49.539Z,100919.00
2019-06-10T08:55:07.509Z,100915.00
2019-06-10T08:57:38.942Z,100913.00
2019-06-10T09:00:15.174Z,100922.00
2019-06-10T09:02:45.965Z,100917.00
2019-06-10T09:05:20.239Z,100921.00
2019-06-10T09:07:54.209Z,100928.00
2019-06-10T09:10:23.231Z,100921.00
2019-06-10T09:12:54.631Z,100927.00
2019-06-10T09:15:26.198Z,100927.00
2019-06-10T09:17:56.850Z,100919.00
2019-06-10T09:20:27.749Z,100908.00
2019-06-10T09:23:15.022Z,100907.00
2019-06-10T09:25:32.703Z,100907.00
2019-06-10T09:28:02.547Z,100907.00
2019-06-10T09:30:34.782Z,100906.00
2019-06-10T09:33:05.155Z,100897.00
2019-06-10T09:35:35.566Z,100888.00
2019-06-10T09:38:05.963Z,100869.00
2019-06-10T09:41:01.386Z,100861.00
2019-06-10T09:43:33.378Z,100865.00
2019-06-10T09:46:04.264Z,100863.00
2019-06-10T09:48:34.706Z,100869.00
2019-06-10T09:51:05.473Z,100877.00
2019-06-10T09:53:46.466Z,100876.00
2019-06-10T09:56:12.516Z,100871.00
2019-06-10T09:59:03.855Z,100875.00
2019-06-10T10:01:34.360Z,100879.00
2019-06-10T10:04:06.243Z,100891.00
2019-06-10T10:06:38.447Z,100880.00
2019-06-10T10:09:08.815Z,100888.00
2019-06-10T10:11:39.309Z,100887.00
2019-06-10T10:14:15.561Z,100876.00
2019-06-10T10:16:48.623Z,100882.00
2019-06-10T10:19:15.106Z,100883.00
2019-06-10T10:21:49.543Z,100883.00
2019-06-10T10:24:17.556Z,100870.00
2019-06-10T10:26:50.369Z,100873.00
2019-06-10T10:29:20.024Z,100869.00
2019-06-10T10:31:52.684Z,100882.00
2019-06-10T10:34:23.648Z,100879.00
2019-06-10T10:36:57.082Z,100894.00
2019-06-10T10:39:27.016Z,100899.00
2019-06-10T10:41:57.525Z,100906.00
2019-06-10T10:44:27.909Z,100894.00
2019-06-10T10:46:58.300Z,100878.00
2019-06-10T10:49:28.670Z,100881.00
2019-06-10T10:52:02.513Z,100880.00
2019-06-10T10:54:36.445Z,100888.00
2019-06-10T10:57:04.663Z,100886.00
2019-06-10T10:59:35.096Z,100889.00
2019-06-10T11:02:08.826Z,100884.00
2019-06-10T11:04:58.607Z,100886.00
2019-06-10T11:07:29.001Z,100885.00
2019-06-10T11:09:59.406Z,100886.00
2019-06-10T11:12:54.137Z,100879.00
2019-06-10T11:15:43.459Z,100878.00
2019-06-10T11:18:14.440Z,100881.00
2019-06-10T11:20:45.281Z,100874.00
2019-06-10T11:23:16.105Z,100870.00
2019-06-10T11:25:47.747Z,100862.00
2019-06-10T11:28:18.259Z,100857.00
2019-06-10T11:30:49.414Z,100856.00
2019-06-10T11:33:22.968Z,100847.00
2019-06-10T11:35:55.651Z,100844.00
2019-06-10T11:38:25.527Z,100839.00
2019-06-10T11:40:58.535Z,100834.00
2019-06-10T11:43:28.033Z,100833.00
2019-06-10T11:46:04.365Z,100838.00
2019-06-10T11:48:32.836Z,100846.00
2019-06-10T11:51:04.668Z,100838.00
2019-06-10T11:53:35.396Z,100844.00
2019-06-10T11:56:06.037Z,100836.00
2019-06-10T11:58:36.521Z,100826.00
2019-06-10T12:01:06.969Z,100833.00
2019-06-10T12:03:37.409Z,100834.00
2019-06-10T12:06:07.887Z,100835.00
2019-06-10T12:08:38.971Z,100820.00
2019-06-10T12:11:09.384Z,100823.00
2019-06-10T12:13:42.509Z,100835.00
2019-06-10T12:18:44.210Z,100835.00
2019-06-10T12:21:14.592Z,100826.00
2019-06-10T12:23:44.989Z,100816.00
2019-06-10T12:26:15.366Z,100815.00
2019-06-10T12:28:45.752Z,100810.00
2019-06-10T12:31:16.731Z,100817.00
2019-06-10T12:33:46.926Z,100824.00
2019-06-10T12:36:17.140Z,100818.00
2019-06-10T12:38:47.606Z,100822.00
2019-06-10T12:41:17.999Z,100803.00
2019-06-10T12:43:48.392Z,100804.00
2019-06-10T12:46:19.277Z,100793.00
2019-06-10T12:48:49.819Z,100785.00
2019-06-10T12:51:22.542Z,100783.00
2019-06-10T12:53:53.242Z,100776.00
2019-06-10T12:56:23.624Z,100781.00
2019-06-10T12:59:09.793Z,100776.00
2019-06-10T13:01:38.011Z,100769.00
2019-06-10T13:04:09.555Z,100769.00
2019-06-10T13:06:42.715Z,100768.00
2019-06-10T13:09:13.179Z,100775.00
2019-06-10T13:11:43.590Z,100758.00
2019-06-10T13:14:14.002Z,100759.00
2019-06-10T13:16:44.364Z,100739.00
2019-06-10T13:19:18.164Z,100731.00
2019-06-10T13:21:48.539Z,100732.00
2019-06-10T13:24:22.319Z,100728.00
2019-06-10T13:26:52.420Z,100716.00
2019-06-10T13:29:24.272Z,100711.00
2019-06-10T13:31:55.972Z,100722.00
2019-06-10T13:34:27.885Z,100705.00
2019-06-10T13:36:58.763Z,100697.00
2019-06-10T13:39:29.183Z,100697.00
2019-06-10T13:41:59.826Z,100694.00
2019-06-10T13:44:32.210Z,100703.00
2019-06-10T13:47:08.092Z,100703.00
2019-06-10T13:49:45.550Z,100701.00
2019-06-10T13:52:16.771Z,100691.00
2019-06-10T13:54:48.355Z,100687.00
2019-06-10T13:57:18.760Z,100678.00
2019-06-10T13:59:49.169Z,100683.00
2019-06-10T14:02:19.559Z,100680.00
2019-06-10T14:04:49.950Z,100675.00
2019-06-10T14:07:23.398Z,100675.00
2019-06-10T14:09:53.433Z,100668.00
2019-06-10T14:12:24.838Z,100675.00
2019-06-10T14:14:55.424Z,100675.00
2019-06-10T14:17:25.888Z,100675.00
2019-06-10T14:19:56.275Z,100671.00
2019-06-10T14:22:26.641Z,100664.00
2019-06-10T14:24:57.043Z,100666.00
2019-06-10T14:27:27.456Z,100658.00
2019-06-10T14:29:58.845Z,100657.00
2019-06-10T14:32:29.276Z,100661.00
2019-06-10T14:34:59.799Z,100658.00
2019-06-10T14:37:38.686Z,100654.00
2019-06-10T14:40:03.959Z,100648.00
2019-06-10T14:42:34.534Z,100640.00
2019-06-10T14:45:07.211Z,100640.00
2019-06-10T14:47:37.775Z,100639.00
2019-06-10T14:50:13.534Z,100637.00
2019-06-10T14:52:42.881Z,100638.00
2019-06-10T14:55:16.643Z,100640.00
2019-06-10T14:57:46.025Z,100645.00
2019-06-10T15:00:38.323Z,100641.00
2019-06-10T15:03:09.964Z,100638.00
2019-06-10T15:05:43.168Z,100641.00
2019-06-10T15:08:15.379Z,100633.00
2019-06-10T15:10:44.978Z,100641.00
2019-06-10T15:13:16.074Z,100642.00
2019-06-10T15:15:47.645Z,100644.00
2019-06-10T15:18:20.642Z,100642.00
2019-06-10T15:20:53.487Z,100632.00
2019-06-10T15:23:23.795Z,100625.00
2019-06-10T15:25:57.130Z,100624.00
2019-06-10T15:28:26.500Z,100629.00
2019-06-10T15:30:56.891Z,100616.00
2019-06-10T15:33:27.269Z,100607.00
2019-06-10T15:35:57.732Z,100601.00
2019-06-10T15:38:28.131Z,100610.00
2019-06-10T15:40:58.515Z,100597.00
2019-06-10T15:43:28.903Z,100606.00
2019-06-10T15:45:59.323Z,100607.00
2019-06-10T15:48:29.748Z,100608.00
2019-06-10T15:51:02.842Z,100611.00
2019-06-10T15:53:32.877Z,100619.00
2019-06-10T15:56:16.892Z,100626.00
2019-06-10T15:58:35.729Z,100632.00
2019-06-10T16:01:27.515Z,100627.00
2019-06-10T16:03:59.195Z,100623.00
2019-06-10T16:06:29.597Z,100615.00
2019-06-10T16:08:59.998Z,100609.00
2019-06-10T16:11:30.377Z,100595.00
2019-06-10T16:14:02.888Z,100598.00
2019-06-10T16:16:33.433Z,100592.00
2019-06-10T16:19:03.835Z,100590.00
2019-06-10T16:21:34.253Z,100583.00
2019-06-10T16:24:04.639Z,100590.00
2019-06-10T16:26:35.589Z,100579.00
2019-06-10T16:29:06.099Z,100572.00
2019-06-10T16:31:36.575Z,100578.00
2019-06-10T16:34:07.846Z,100566.00
2019-06-10T16:36:38.390Z,100566.00
2019-06-10T16:39:09.129Z,100561.00
2019-06-10T16:41:43.791Z,100560.00
2019-06-10T16:44:15.768Z,100556.00
2019-06-10T16:46:47.319Z,100548.00
2019-06-10T16:49:19.220Z,100556.00
2019-06-10T16:51:51.793Z,100559.00
2019-06-10T16:54:24.220Z,100559.00
2019-06-10T16:56:57.173Z,100562.00
2019-06-10T16:59:27.715Z,100555.00
2019-06-10T17:01:58.591Z,100565.00
2019-06-10T17:04:30.713Z,100565.00
2019-06-10T17:07:02.181Z,100563.00
2019-06-10T17:09:32.986Z,100562.00
2019-06-10T17:12:03.509Z,100568.00
2019-06-10T17:14:33.911Z,100575.00
2019-06-10T17:17:04.295Z,100575.00
2019-06-10T17:19:34.684Z,100572.00
2019-06-10T17:22:05.060Z,100574.00
2019-06-10T17:24:35.453Z,100567.00
2019-06-10T17:27:05.816Z,100562.00
2019-06-10T17:29:36.219Z,100579.00
2019-06-10T17:32:06.757Z,100576.00
2019-06-10T17:34:37.155Z,100570.00
2019-06-10T17:37:07.532Z,100559.00
2019-06-10T17:39:37.925Z,100572.00
2019-06-10T17:42:08.302Z,100564.00
2019-06-10T17:44:38.705Z,100566.00
2019-06-10T17:47:09.079Z,100572.00
2019-06-10T17:49:41.856Z,100571.00
2019-06-10T17:52:12.982Z,100574.00
2019-06-10T17:54:43.603Z,100572.00
2019-06-10T17:57:13.972Z,100558.00
2019-06-10T17:59:44.359Z,100554.00
2019-06-10T18:02:14.745Z,100547.00
2019-06-10T18:04:45.152Z,100553.00
2019-06-10T18:07:15.521Z,100558.00
2019-06-10T18:09:45.920Z,100559.00
2019-06-10T18:12:16.289Z,100558.00
2019-06-10T18:14:46.690Z,100558.00
2019-06-10T18:17:17.060Z,100555.00
2019-06-10T18:19:47.532Z,100551.00
2019-06-10T18:22:17.964Z,100556.00
2019-06-10T18:24:48.366Z,100555.00
2019-06-10T18:27:18.743Z,100554.00
2019-06-10T18:29:49.125Z,100562.00
2019-06-10T18:32:19.507Z,100547.00
2019-06-10T18:34:52.008Z,100538.00
2019-06-10T18:37:42.255Z,100537.00
2019-06-10T18:40:14.635Z,100538.00
2019-06-10T18:42:45.543Z,100538.00
2019-06-10T18:45:16.258Z,100541.00
2019-06-10T18:47:46.352Z,100533.00
2019-06-10T18:50:17.912Z,100534.00
2019-06-10T18:52:48.324Z,100532.00
2019-06-10T18:55:19.798Z,100529.00
2019-06-10T18:57:50.166Z,100513.00
2019-06-10T19:00:22.979Z,100516.00
2019-06-10T19:03:09.264Z,100504.00
2019-06-10T19:05:26.662Z,100504.00
2019-06-10T19:07:57.030Z,100503.00
2019-06-10T19:10:27.428Z,100509.00
2019-06-10T19:12:58.749Z,100506.00
2019-06-10T19:15:29.527Z,100516.00
2019-06-10T19:18:02.951Z,100512.00
2019-06-10T19:20:35.410Z,100518.00
2019-06-10T19:23:04.245Z,100518.00
2019-06-10T19:25:37.247Z,100503.00
2019-06-10T19:28:06.719Z,100515.00
2019-06-10T19:30:39.389Z,100530.00
2019-06-10T19:33:12.628Z,100538.00
2019-06-10T19:35:43.822Z,100554.00
2019-06-10T19:38:15.624Z,100558.00
2019-06-10T19:40:46.228Z,100558.00
2019-06-10T19:43:16.996Z,100564.00
2019-06-10T19:45:47.380Z,100564.00
2019-06-10T19:48:17.949Z,100563.00
2019-06-10T19:50:51.302Z,100565.00
2019-06-10T19:53:22.181Z,100558.00
2019-06-10T19:55:53.416Z,100561.00
2019-06-10T19:58:24.941Z,100570.00
2019-06-10T20:00:56.582Z,100575.00
2019-06-10T20:03:27.139Z,100571.00
2019-06-10T20:05:57.596Z,100566.00
2019-06-10T20:08:27.961Z,100567.00
2019-06-10T20:10:59.401Z,100556.00
2019-06-10T20:13:32.297Z,100549.00
2019-06-10T20:16:02.961Z,100547.00
2019-06-10T20:18:33.638Z,100541.00
2019-06-10T20:21:03.992Z,100534.00
2019-06-10T20:23:35.417Z,100537.00
2019-06-10T20:26:05.927Z,100532.00
2019-06-10T20:28:36.610Z,100524.00
2019-06-10T20:31:07.040Z,100522.00
2019-06-10T20:33:39.073Z,100523.00
2019-06-10T20:36:17.777Z,100533.00
2019-06-10T20:38:46.396Z,100526.00
2019-06-10T20:41:14.643Z,100523.00
2019-06-10T20:43:47.094Z,100518.00
2019-06-10T20:46:17.294Z,100530.00
2019-06-10T20:48:51.104Z,100529.00
2019-06-10T20:51:22.537Z,100539.00
2019-06-10T20:53:53.288Z,100538.00
2019-06-10T20:56:24.159Z,100532.00
2019-06-10T20:58:54.526Z,100520.00
2019-06-10T21:01:25.710Z,100510.00
2019-06-10T21:03:56.186Z,100492.00
2019-06-10T21:06:32.708Z,100488.00
2019-06-10T21:09:09.520Z,100492.00
2019-06-10T21:11:40.001Z,100503.00
2019-06-10T21:14:12.255Z,100515.00
2019-06-10T21:16:42.446Z,100513.00
2019-06-10T21:19:12.897Z,100491.00
2019-06-10T21:21:45.626Z,100491.00
2019-06-10T21:24:15.810Z,100508.00
2019-06-10T21:26:47.094Z,100499.00
2019-06-10T21:29:25.301Z,100489.00
2019-06-10T21:31:55.761Z,100495.00
2019-06-10T21:34:26.156Z,100494.00
2019-06-10T21:36:56.621Z,100489.00
2019-06-10T21:39:27.028Z,100464.00
2019-06-10T21:41:57.394Z,100455.00
2019-06-10T21:44:28.741Z,100460.00
2019-06-10T21:47:02.321Z,100471.00
2019-06-10T21:49:42.739Z,100472.00
2019-06-10T21:52:13.341Z,100460.00
2019-06-10T21:54:45.159Z,100456.00
2019-06-10T21:57:17.589Z,100448.00
2019-06-10T21:59:48.936Z,100439.00
2019-06-10T22:02:19.527Z,100432.00
2019-06-10T22:04:53.778Z,100425.00
2019-06-10T22:07:23.142Z,100434.00
2019-06-10T22:09:55.773Z,100436.00
2019-06-10T22:12:26.179Z,100429.00
2019-06-10T22:14:56.570Z,100419.00
2019-06-10T22:17:26.937Z,100430.00
2019-06-10T22:19:57.580Z,100428.00
2019-06-10T22:22:28.181Z,100440.00
2019-06-10T22:24:58.679Z,100433.00
2019-06-10T22:27:29.476Z,100447.00
2019-06-10T22:30:02.704Z,100460.00
2019-06-10T22:32:34.025Z,100469.00
2019-06-10T22:35:06.631Z,100469.00
2019-06-10T22:37:36.999Z,100467.00
2019-06-10T22:40:07.993Z,100467.00
2019-06-10T22:42:38.360Z,100455.00
2019-06-10T22:45:13.041Z,100454.00
2019-06-10T22:47:42.705Z,100450.00
2019-06-10T22:50:13.572Z,100435.00
2019-06-10T22:52:44.004Z,100432.00
2019-06-10T22:55:14.863Z,100410.00
2019-06-10T22:57:45.237Z,100401.00
2019-06-10T23:00:16.746Z,100389.00
2019-06-10T23:02:47.809Z,100387.00
2019-06-10T23:05:19.310Z,100383.00
2019-06-10T23:07:50.804Z,100380.00
2019-06-10T23:10:22.943Z,100382.00
2019-06-10T23:12:55.068Z,100376.00
2019-06-10T23:15:25.423Z,100385.00
2019-06-10T23:17:57.505Z,100390.00
2019-06-10T23:20:28.873Z,100389.00
2019-06-10T23:23:00.316Z,100393.00
2019-06-10T23:25:32.620Z,100381.00
2019-06-10T23:28:02.832Z,100380.00
2019-06-10T23:30:33.238Z,100390.00
2019-06-10T23:33:03.954Z,100401.00
2019-06-10T23:35:34.358Z,100397.00
2019-06-10T23:38:05.247Z,100399.00
2019-06-10T23:40:35.804Z,100402.00
2019-06-10T23:43:06.250Z,100441.00
2019-06-10T23:45:36.693Z,100501.00
2019-06-10T23:48:07.066Z,100509.00
2019-06-10T23:50:37.466Z,100512.00
2019-06-10T23:53:08.108Z,100521.00
2019-06-10T23:55:39.491Z,100523.00
2019-06-10T23:58:13.000Z,100520.00
